createdAt,value
2018-05-11T00:00:06.032Z,56.33
2018-05-11T00:01:05.937Z,56.71
2018-05-11T00:02:05.951Z,57.58
2018-05-11T00:03:06.069Z,57.68
2018-05-11T00:04:05.990Z,58.54
2018-05-11T00:05:06.012Z,60.82
2018-05-11T00:06:06.011Z,61.20
2018-05-11T00:07:06.042Z,61.87
2018-05-11T00:08:06.175Z,62.35
2018-05-11T00:09:06.077Z,61.78
2018-05-11T00:10:06.080Z,62.35
2018-05-11T00:11:06.117Z,61.81
2018-05-11T00:12:06.100Z,61.58
2018-05-11T00:13:06.264Z,60.53
2018-05-11T00:14:06.137Z,60.63
2018-05-11T00:15:06.154Z,61.78
2018-05-11T00:16:06.189Z,61.20
2018-05-11T00:17:06.199Z,61.68
2018-05-11T00:18:06.292Z,62.07
2018-05-11T00:19:06.200Z,62.77
2018-05-11T00:20:06.224Z,61.97
2018-05-11T00:21:06.265Z,62.07
2018-05-11T00:22:06.282Z,62.35
2018-05-11T00:23:06.388Z,63.25
2018-05-11T00:24:06.276Z,62.84
2018-05-11T00:25:07.835Z,62.87
2018-05-11T00:26:06.868Z,63.22
2018-05-11T00:27:06.338Z,62.96
2018-05-11T00:28:06.511Z,62.29
2018-05-11T00:29:06.378Z,62.48
2018-05-11T00:30:06.390Z,62.96
2018-05-11T00:31:06.381Z,62.38
2018-05-11T00:32:06.410Z,62.29
2018-05-11T00:33:06.422Z,62.68
2018-05-11T00:34:06.527Z,62.48
2018-05-11T00:35:06.441Z,62.58
2018-05-11T00:36:06.453Z,62.38
2018-05-11T00:37:06.468Z,61.81
2018-05-11T00:38:06.485Z,61.81
2018-05-11T00:39:06.626Z,61.23
2018-05-11T00:40:06.529Z,61.23
2018-05-11T00:41:06.558Z,61.52
2018-05-11T00:42:06.549Z,60.85
2018-05-11T00:43:06.581Z,60.75
2018-05-11T00:44:06.721Z,60.46
2018-05-11T00:45:06.597Z,60.17
2018-05-11T00:46:06.606Z,59.50
2018-05-11T00:47:06.615Z,59.89
2018-05-11T00:48:06.645Z,58.83
2018-05-11T00:49:06.770Z,58.83
2018-05-11T00:50:06.659Z,58.54
2018-05-11T00:51:06.728Z,58.64
2018-05-11T00:52:06.716Z,58.06
2018-05-11T00:53:06.701Z,57.70
2018-05-11T00:54:06.846Z,58.09
2018-05-11T00:55:06.763Z,57.99
2018-05-11T00:56:06.778Z,57.80
2018-05-11T00:57:06.771Z,57.13
2018-05-11T00:58:06.785Z,57.32
2018-05-11T00:59:06.956Z,57.22
2018-05-11T01:00:06.833Z,56.84
2018-05-11T01:01:06.824Z,56.84
2018-05-11T01:02:06.864Z,56.93
2018-05-11T01:03:06.860Z,56.93
2018-05-11T01:04:06.975Z,57.13
2018-05-11T01:05:06.908Z,57.03
2018-05-11T01:06:06.906Z,56.93
2018-05-11T01:07:06.918Z,56.74
2018-05-11T01:08:06.931Z,56.74
2018-05-11T01:09:07.048Z,56.84
2018-05-11T01:10:06.985Z,56.84
2018-05-11T01:11:06.970Z,57.13
2018-05-11T01:12:07.011Z,56.84
2018-05-11T01:13:07.000Z,56.84
2018-05-11T01:14:07.125Z,57.32
2018-05-11T01:15:07.065Z,57.51
2018-05-11T01:16:07.082Z,57.51
2018-05-11T01:17:07.091Z,57.32
2018-05-11T01:18:07.074Z,57.42
2018-05-11T01:19:07.220Z,57.03
2018-05-11T01:20:07.130Z,57.70
2018-05-11T01:21:07.124Z,57.32
2018-05-11T01:22:07.163Z,57.60
2018-05-11T01:23:07.148Z,57.77
2018-05-11T01:24:07.313Z,58.35
2018-05-11T01:25:07.206Z,58.54
2018-05-11T01:26:07.193Z,58.64
2018-05-11T01:27:07.212Z,58.67
2018-05-11T01:28:07.222Z,59.22
2018-05-11T01:29:07.345Z,58.64
2018-05-11T01:30:07.252Z,58.54
2018-05-11T01:31:07.268Z,58.83
2018-05-11T01:32:07.283Z,59.31
2018-05-11T01:33:07.296Z,58.92
2018-05-11T01:34:07.442Z,59.12
2018-05-11T01:35:07.334Z,58.92
2018-05-11T01:36:07.343Z,59.02
2018-05-11T01:37:07.375Z,58.64
2018-05-11T01:38:07.373Z,59.02
2018-05-11T01:39:07.398Z,59.22
2018-05-11T01:40:07.527Z,59.31
2018-05-11T01:41:07.434Z,59.41
2018-05-11T01:42:07.433Z,59.69
2018-05-11T01:43:07.472Z,59.99
2018-05-11T01:44:07.460Z,59.60
2018-05-11T01:45:07.599Z,59.69
2018-05-11T01:46:07.490Z,59.89
2018-05-11T01:47:07.536Z,59.31
2018-05-11T01:48:07.547Z,59.69
2018-05-11T01:49:07.545Z,60.08
2018-05-11T01:50:07.676Z,59.31
2018-05-11T01:51:07.565Z,59.12
2018-05-11T01:52:07.586Z,59.31
2018-05-11T01:53:07.592Z,59.38
2018-05-11T01:54:07.613Z,59.28
2018-05-11T01:55:07.786Z,59.02
2018-05-11T01:56:07.664Z,59.12
2018-05-11T01:57:07.682Z,59.47
2018-05-11T01:58:07.689Z,59.99
2018-05-11T01:59:07.705Z,60.05
2018-05-11T02:00:07.821Z,59.79
2018-05-11T02:01:07.735Z,59.89
2018-05-11T02:02:07.722Z,60.14
2018-05-11T02:03:07.740Z,60.17
2018-05-11T02:04:07.757Z,60.14
2018-05-11T02:05:07.928Z,60.24
2018-05-11T02:06:07.784Z,60.14
2018-05-11T02:07:07.820Z,59.95
2018-05-11T02:08:07.842Z,60.24
2018-05-11T02:09:07.848Z,60.14
2018-05-11T02:10:08.014Z,60.24
2018-05-11T02:11:07.852Z,60.14
2018-05-11T02:12:07.892Z,60.05
2018-05-11T02:13:07.906Z,60.34
2018-05-11T02:14:07.928Z,60.91
2018-05-11T02:15:08.036Z,60.63
2018-05-11T02:16:07.929Z,60.63
2018-05-11T02:17:07.933Z,60.82
2018-05-11T02:18:07.982Z,61.11
2018-05-11T02:19:07.975Z,61.30
2018-05-11T02:20:08.170Z,61.40
2018-05-11T02:21:08.024Z,61.20
2018-05-11T02:22:08.028Z,61.87
2018-05-11T02:23:08.043Z,61.30
2018-05-11T02:24:08.043Z,61.58
2018-05-11T02:25:08.166Z,61.97
2018-05-11T02:26:08.074Z,61.49
2018-05-11T02:27:08.088Z,61.78
2018-05-11T02:28:08.102Z,61.87
2018-05-11T02:29:08.114Z,61.87
2018-05-11T02:30:08.227Z,61.30
2018-05-11T02:31:08.146Z,61.40
2018-05-11T02:32:08.175Z,61.97
2018-05-11T02:33:08.171Z,61.68
2018-05-11T02:34:08.219Z,61.87
2018-05-11T02:35:08.300Z,61.87
2018-05-11T02:36:08.210Z,61.87
2018-05-11T02:37:08.255Z,61.78
2018-05-11T02:38:08.240Z,61.78
2018-05-11T02:39:08.251Z,62.16
2018-05-11T02:40:08.374Z,62.13
2018-05-11T02:41:08.302Z,62.07
2018-05-11T02:42:08.300Z,62.52
2018-05-11T02:43:08.320Z,62.64
2018-05-11T02:44:08.328Z,62.81
2018-05-11T02:45:08.348Z,62.52
2018-05-11T02:46:08.461Z,62.42
2018-05-11T02:47:08.371Z,62.99
2018-05-11T02:48:08.396Z,63.09
2018-05-11T02:49:08.400Z,62.61
2018-05-11T02:50:08.442Z,62.99
2018-05-11T02:51:08.530Z,62.99
2018-05-11T02:52:08.444Z,62.90
2018-05-11T02:53:08.459Z,62.90
2018-05-11T02:54:08.486Z,62.90
2018-05-11T02:55:08.494Z,63.19
2018-05-11T02:56:08.622Z,62.99
2018-05-11T02:57:08.512Z,63.38
2018-05-11T02:58:08.555Z,63.57
2018-05-11T02:59:08.553Z,63.76
2018-05-11T03:00:08.570Z,63.48
2018-05-11T03:01:08.675Z,63.96
2018-05-11T03:02:08.592Z,63.76
2018-05-11T03:03:08.600Z,63.76
2018-05-11T03:04:08.632Z,63.76
2018-05-11T03:05:08.645Z,63.57
2018-05-11T03:06:08.753Z,63.76
2018-05-11T03:07:08.685Z,63.86
2018-05-11T03:08:08.703Z,63.96
2018-05-11T03:09:08.713Z,63.86
2018-05-11T03:10:08.697Z,64.05
2018-05-11T03:11:08.828Z,63.57
2018-05-11T03:12:08.751Z,63.57
2018-05-11T03:13:08.751Z,63.76
2018-05-11T03:14:08.768Z,63.96
2018-05-11T03:15:08.788Z,64.15
2018-05-11T03:16:08.911Z,64.34
2018-05-11T03:17:08.807Z,64.05
2018-05-11T03:18:08.814Z,64.63
2018-05-11T03:19:08.837Z,64.72
2018-05-11T03:20:08.868Z,64.53
2018-05-11T03:21:09.003Z,64.72
2018-05-11T03:22:08.870Z,64.59
2018-05-11T03:23:08.885Z,64.63
2018-05-11T03:24:08.911Z,64.92
2018-05-11T03:25:08.933Z,64.40
2018-05-11T03:26:09.037Z,64.59
2018-05-11T03:27:08.971Z,65.49
2018-05-11T03:28:08.978Z,65.36
2018-05-11T03:29:08.969Z,65.56
2018-05-11T03:30:08.991Z,65.36
2018-05-11T03:31:09.098Z,65.08
2018-05-11T03:32:09.009Z,65.27
2018-05-11T03:33:09.049Z,65.27
2018-05-11T03:34:09.051Z,64.98
2018-05-11T03:35:09.075Z,65.17
2018-05-11T03:36:09.244Z,65.56
2018-05-11T03:37:09.078Z,65.17
2018-05-11T03:38:09.119Z,65.27
2018-05-11T03:39:09.109Z,65.56
2018-05-11T03:40:09.118Z,65.94
2018-05-11T03:41:09.240Z,65.94
2018-05-11T03:42:09.158Z,65.94
2018-05-11T03:43:09.170Z,66.52
2018-05-11T03:44:09.187Z,66.42
2018-05-11T03:45:09.190Z,66.33
2018-05-11T03:46:09.370Z,66.33
2018-05-11T03:47:09.231Z,66.13
2018-05-11T03:48:09.231Z,66.61
2018-05-11T03:49:09.247Z,66.33
2018-05-11T03:50:09.287Z,66.90
2018-05-11T03:51:09.302Z,66.71
2018-05-11T03:52:09.390Z,66.90
2018-05-11T03:53:09.325Z,66.90
2018-05-11T03:54:09.318Z,67.38
2018-05-11T03:55:09.347Z,67.29
2018-05-11T03:56:09.359Z,67.38
2018-05-11T03:57:09.356Z,67.19
2018-05-11T03:58:09.471Z,67.29
2018-05-11T03:59:09.383Z,66.90
2018-05-11T04:00:09.396Z,67.19
2018-05-11T04:01:09.423Z,67.57
2018-05-11T04:02:09.455Z,67.76
2018-05-11T04:03:09.535Z,68.15
2018-05-11T04:04:09.470Z,68.15
2018-05-11T04:05:09.467Z,67.67
2018-05-11T04:06:09.481Z,68.34
2018-05-11T04:07:09.498Z,68.34
2018-05-11T04:08:09.614Z,68.53
2018-05-11T04:09:09.527Z,68.59
2018-05-11T04:10:09.567Z,68.73
2018-05-11T04:11:09.562Z,69.11
2018-05-11T04:12:09.576Z,69.11
2018-05-11T04:13:09.696Z,68.98
2018-05-11T04:14:09.594Z,69.01
2018-05-11T04:15:09.609Z,69.20
2018-05-11T04:16:09.632Z,69.20
2018-05-11T04:17:09.637Z,68.79
2018-05-11T04:18:09.801Z,68.82
2018-05-11T04:19:09.667Z,68.98
2018-05-11T04:20:09.676Z,69.07
2018-05-11T04:21:09.692Z,68.69
2018-05-11T04:22:09.705Z,68.98
2018-05-11T04:23:09.816Z,69.07
2018-05-11T04:24:09.730Z,69.07
2018-05-11T04:25:09.743Z,69.07
2018-05-11T04:26:09.867Z,69.07
2018-05-11T04:27:09.804Z,69.07
2018-05-11T04:28:09.898Z,69.07
2018-05-11T04:29:09.798Z,68.98
2018-05-11T04:30:09.894Z,68.98
2018-05-11T04:31:09.829Z,68.98
2018-05-11T04:32:09.851Z,69.26
2018-05-11T04:33:09.979Z,69.56
2018-05-11T04:34:09.869Z,69.74
2018-05-11T04:35:09.876Z,69.36
2018-05-11T04:36:09.898Z,69.65
2018-05-11T04:37:09.921Z,70.03
2018-05-11T04:38:10.105Z,69.56
2018-05-11T04:39:09.944Z,70.03
2018-05-11T04:40:09.954Z,70.13
2018-05-11T04:41:09.967Z,70.42
2018-05-11T04:42:09.979Z,69.84
2018-05-11T04:43:10.087Z,70.51
2018-05-11T04:44:10.008Z,70.51
2018-05-11T04:45:10.038Z,70.42
2018-05-11T04:46:10.034Z,70.99
2018-05-11T04:47:10.053Z,71.19
2018-05-11T04:48:10.170Z,70.99
2018-05-11T04:49:10.072Z,71.66
2018-05-11T04:50:10.111Z,70.99
2018-05-11T04:51:10.103Z,71.47
2018-05-11T04:52:10.122Z,71.47
2018-05-11T04:53:10.287Z,71.66
2018-05-11T04:54:10.172Z,71.47
2018-05-11T04:55:10.206Z,71.57
2018-05-11T04:56:10.166Z,71.66
2018-05-11T04:57:10.183Z,72.14
2018-05-11T04:58:10.373Z,71.86
2018-05-11T04:59:10.213Z,72.72
2018-05-11T05:00:10.223Z,72.05
2018-05-11T05:01:10.261Z,72.05
2018-05-11T05:02:10.281Z,72.14
2018-05-11T05:03:10.263Z,71.66
2018-05-11T05:04:10.386Z,72.53
2018-05-11T05:05:10.296Z,72.05
2018-05-11T05:06:10.306Z,72.63
2018-05-11T05:07:10.329Z,72.33
2018-05-11T05:08:10.338Z,72.33
2018-05-11T05:09:10.520Z,72.33
2018-05-11T05:10:10.368Z,72.24
2018-05-11T05:11:10.397Z,73.20
2018-05-11T05:12:10.388Z,73.16
2018-05-11T05:13:10.396Z,73.49
2018-05-11T05:16:29.651Z,73.65
2018-05-11T05:19:10.642Z,74.98
2018-05-11T05:20:10.519Z,74.51
2018-05-11T05:21:10.517Z,74.51
2018-05-11T05:22:10.523Z,75.27
2018-05-11T05:23:10.537Z,75.65
2018-05-11T05:24:10.673Z,75.18
2018-05-11T05:27:11.263Z,75.18
2018-05-11T05:28:12.661Z,75.08
2018-05-11T05:29:11.530Z,75.85
2018-05-11T05:30:10.628Z,75.85
2018-05-11T05:31:10.641Z,75.37
2018-05-11T05:32:10.669Z,76.04
2018-05-11T05:33:10.722Z,75.56
2018-05-11T05:34:10.793Z,75.56
2018-05-11T05:35:10.694Z,75.75
2018-05-11T05:36:10.721Z,76.32
2018-05-11T05:37:10.732Z,76.14
2018-05-11T05:38:10.734Z,76.04
2018-05-11T05:39:10.905Z,75.85
2018-05-11T05:40:10.770Z,76.52
2018-05-11T05:41:10.783Z,76.62
2018-05-11T05:42:10.791Z,76.81
2018-05-11T05:43:10.813Z,76.90
2018-05-11T05:44:37.986Z,77.00
2018-05-11T05:45:10.836Z,76.57
2018-05-11T05:46:10.849Z,77.29
2018-05-11T05:47:10.855Z,77.19
2018-05-11T05:48:10.899Z,77.76
2018-05-11T05:49:11.010Z,78.25
2018-05-11T05:50:10.901Z,77.95
2018-05-11T05:51:10.940Z,78.92
2018-05-11T05:52:12.137Z,78.30
2018-05-11T05:53:18.132Z,78.69
2018-05-11T05:54:13.366Z,79.26
2018-05-11T05:55:10.987Z,79.45
2018-05-11T05:56:10.981Z,79.64
2018-05-11T05:57:11.526Z,79.16
2018-05-11T05:59:14.780Z,78.97
2018-05-11T06:00:11.063Z,78.78
2018-05-11T06:01:11.044Z,79.45
2018-05-11T06:02:11.081Z,79.64
2018-05-11T06:03:11.069Z,79.74
2018-05-11T06:04:12.528Z,79.83
2018-05-11T06:05:11.737Z,79.64
2018-05-11T06:06:11.110Z,80.12
2018-05-11T06:07:11.149Z,80.12
2018-05-11T06:08:11.222Z,80.22
2018-05-11T06:09:11.277Z,80.12
2018-05-11T06:10:11.161Z,80.70
2018-05-11T06:11:11.191Z,80.41
2018-05-11T06:12:11.218Z,80.60
2018-05-11T06:13:11.199Z,81.18
2018-05-11T06:14:11.338Z,80.79
2018-05-11T06:15:11.254Z,81.37
2018-05-11T06:16:11.244Z,81.37
2018-05-11T06:17:11.284Z,81.37
2018-05-11T06:18:11.259Z,80.99
2018-05-11T06:19:11.304Z,81.46
2018-05-11T06:20:11.445Z,80.70
2018-05-11T06:21:11.310Z,81.08
2018-05-11T06:22:11.314Z,81.18
2018-05-11T06:23:11.331Z,81.18
2018-05-11T06:24:11.356Z,81.75
2018-05-11T06:25:11.486Z,81.66
2018-05-11T06:26:11.397Z,81.56
2018-05-11T06:27:11.387Z,81.75
2018-05-11T06:28:11.393Z,81.66
2018-05-11T06:29:11.434Z,81.46
2018-05-11T06:31:11.544Z,81.18
2018-05-11T06:32:11.458Z,80.99
2018-05-11T06:33:11.460Z,81.46
2018-05-11T06:34:11.472Z,82.04
2018-05-11T06:35:11.488Z,81.46
2018-05-11T06:36:11.601Z,81.46
2018-05-11T06:37:11.546Z,81.85
2018-05-11T06:38:11.532Z,81.37
2018-05-11T06:39:11.549Z,81.66
2018-05-11T06:40:18.901Z,81.27
2018-05-11T06:41:12.282Z,82.14
2018-05-11T06:42:11.584Z,81.66
2018-05-11T06:43:11.603Z,81.85
2018-05-11T06:44:11.632Z,82.23
2018-05-11T06:45:12.229Z,81.95
2018-05-11T06:46:11.758Z,82.42
2018-05-11T06:47:11.648Z,82.32
2018-05-11T06:48:11.670Z,82.14
2018-05-11T06:49:11.674Z,82.32
2018-05-11T06:50:11.717Z,82.23
2018-05-11T06:51:11.827Z,82.71
2018-05-11T06:52:11.741Z,83.09
2018-05-11T06:53:11.749Z,83.00
2018-05-11T06:54:11.755Z,82.71
2018-05-11T06:55:11.782Z,83.09
2018-05-11T06:56:11.946Z,83.29
2018-05-11T06:57:11.791Z,83.19
2018-05-11T06:58:11.796Z,83.86
2018-05-11T06:59:11.817Z,83.48
2018-05-11T07:00:11.820Z,84.15
2018-05-11T07:01:11.931Z,83.92
2018-05-11T07:02:11.849Z,84.11
2018-05-11T07:03:11.857Z,84.39
2018-05-11T07:04:11.877Z,84.30
2018-05-11T07:05:11.883Z,84.01
2018-05-11T07:06:12.010Z,84.49
2018-05-11T07:07:11.934Z,84.58
2018-05-11T07:08:11.927Z,84.63
2018-05-11T07:09:11.963Z,84.49
2018-05-11T07:10:11.947Z,84.39
2018-05-11T07:11:12.112Z,84.78
2018-05-11T07:12:11.999Z,85.25
2018-05-11T07:13:11.987Z,85.45
2018-05-11T07:14:12.029Z,85.35
2018-05-11T07:15:12.013Z,85.16
2018-05-11T07:16:12.202Z,85.16
2018-05-11T07:17:12.054Z,85.06
2018-05-11T07:18:12.077Z,85.06
2018-05-11T07:19:12.065Z,85.25
2018-05-11T07:20:12.083Z,85.64
2018-05-11T07:21:12.197Z,85.74
2018-05-11T07:22:12.128Z,86.41
2018-05-11T07:23:12.146Z,86.50
2018-05-11T07:24:12.130Z,86.88
2018-05-11T07:25:12.138Z,86.69
2018-05-11T07:26:12.317Z,86.88
2018-05-11T07:27:12.165Z,86.69
2018-05-11T07:28:12.207Z,86.88
2018-05-11T07:34:12.280Z,87.65
2018-05-11T07:35:12.293Z,87.55
2018-05-11T07:36:12.309Z,87.46
2018-05-11T07:37:12.321Z,87.84
2018-05-11T07:38:12.432Z,87.84
2018-05-11T07:39:12.321Z,87.65
2018-05-11T07:41:12.349Z,88.03
2018-05-11T07:42:12.389Z,88.13
2018-05-11T07:43:12.580Z,87.94
2018-05-11T07:44:12.411Z,88.23
2018-05-11T07:45:12.421Z,88.13
2018-05-11T07:46:13.896Z,88.61
2018-05-11T07:47:13.424Z,88.32
2018-05-11T07:48:14.028Z,88.23
2018-05-11T07:49:14.049Z,88.51
2018-05-11T07:50:12.462Z,88.32
2018-05-11T07:51:12.476Z,88.42
2018-05-11T07:52:12.485Z,88.03
2018-05-11T07:53:12.608Z,88.51
2018-05-11T07:54:12.523Z,88.13
2018-05-11T07:55:12.550Z,88.61
2018-05-11T07:56:12.539Z,89.09
2018-05-11T07:57:12.577Z,88.90
2018-05-11T07:58:12.729Z,88.90
2018-05-11T07:59:13.790Z,89.28
2018-05-11T08:00:12.601Z,89.47
2018-05-11T08:01:12.605Z,89.18
2018-05-11T08:02:12.629Z,89.57
2018-05-11T08:03:12.801Z,89.86
2018-05-11T08:04:12.640Z,89.66
2018-05-11T08:05:12.658Z,89.76
2018-05-11T08:06:12.661Z,89.95
2018-05-11T08:07:12.681Z,89.66
2018-05-11T08:08:12.838Z,89.66
2018-05-11T08:09:12.728Z,90.43
2018-05-11T08:11:12.741Z,90.33
2018-05-11T08:12:12.741Z,90.33
2018-05-11T08:13:12.883Z,90.23
2018-05-11T08:14:12.847Z,89.95
2018-05-11T08:15:12.786Z,89.47
2018-05-11T08:16:12.818Z,89.95
2018-05-11T08:17:12.835Z,89.66
2018-05-11T08:18:13.653Z,89.43
2018-05-11T08:19:12.858Z,89.62
2018-05-11T08:20:12.875Z,89.95
2018-05-11T08:21:12.859Z,89.57
2018-05-11T08:22:12.871Z,89.37
2018-05-11T08:23:13.058Z,89.23
2018-05-11T08:24:12.901Z,89.04
2018-05-11T08:25:12.918Z,89.23
2018-05-11T08:26:12.926Z,89.43
2018-05-11T08:27:12.935Z,89.33
2018-05-11T08:28:13.049Z,89.14
2018-05-11T08:29:12.990Z,90.09
2018-05-11T08:30:13.006Z,89.81
2018-05-11T08:31:12.989Z,89.62
2018-05-11T08:32:13.022Z,89.62
2018-05-11T08:33:13.159Z,89.62
2018-05-11T08:34:13.526Z,89.72
2018-05-11T08:35:13.037Z,89.62
2018-05-11T08:36:13.052Z,89.52
2018-05-11T08:37:13.063Z,89.90
2018-05-11T08:38:13.188Z,90.09
2018-05-11T08:39:13.089Z,90.39
2018-05-11T08:40:13.102Z,90.39
2018-05-11T08:41:13.113Z,89.72
2018-05-11T08:42:13.153Z,90.29
2018-05-11T08:43:13.315Z,89.90
2018-05-11T08:44:13.156Z,89.72
2018-05-11T08:45:13.187Z,89.90
2018-05-11T08:46:13.193Z,89.62
2018-05-11T08:47:13.217Z,90.09
2018-05-11T08:48:13.225Z,89.90
2018-05-11T08:49:13.340Z,90.39
2018-05-11T08:50:13.222Z,90.19
2018-05-11T08:51:13.266Z,89.90
2018-05-11T08:53:17.675Z,90.58
2018-05-11T08:54:20.542Z,90.58
2018-05-11T08:55:13.290Z,90.48
2018-05-11T08:56:13.320Z,90.67
2018-05-11T08:57:13.362Z,90.48
2018-05-11T08:58:13.326Z,90.96
2018-05-11T08:59:13.467Z,91.15
2018-05-11T09:00:13.352Z,90.86
2018-05-11T09:01:13.377Z,91.05
2018-05-11T09:02:13.379Z,91.05
2018-05-11T09:03:13.418Z,91.05
2018-05-11T09:04:13.531Z,91.05
2018-05-11T09:05:13.439Z,91.05
2018-05-11T09:06:13.426Z,91.05
2018-05-11T09:07:13.450Z,91.05
2018-05-11T09:08:13.455Z,91.15
2018-05-11T09:09:13.565Z,90.96
2018-05-11T09:10:13.484Z,91.05
2018-05-11T09:11:13.490Z,90.67
2018-05-11T09:12:13.532Z,90.96
2018-05-11T09:13:13.520Z,91.15
2018-05-11T09:14:13.679Z,90.86
2018-05-11T09:15:13.552Z,91.72
2018-05-11T09:16:13.557Z,91.53
2018-05-11T09:17:13.571Z,91.63
2018-05-11T09:18:13.579Z,91.92
2018-05-11T09:19:13.718Z,91.44
2018-05-11T09:20:13.610Z,91.34
2018-05-11T09:21:13.616Z,91.53
2018-05-11T09:22:13.629Z,91.15
2018-05-11T09:23:13.644Z,91.53
2018-05-11T09:24:13.752Z,91.82
2018-05-11T09:25:13.693Z,91.53
2018-05-11T09:26:13.677Z,91.34
2018-05-11T09:27:13.718Z,91.44
2018-05-11T09:28:13.707Z,91.63
2018-05-11T09:29:13.826Z,91.44
2018-05-11T09:30:13.726Z,91.72
2018-05-11T09:31:13.742Z,91.25
2018-05-11T09:32:13.751Z,91.25
2018-05-11T09:33:13.782Z,91.34
2018-05-11T09:34:33.694Z,91.63
2018-05-11T09:35:14.398Z,91.53
2018-05-11T09:36:13.832Z,91.44
2018-05-11T09:37:13.816Z,91.34
2018-05-11T09:38:14.604Z,91.92
2018-05-11T09:39:14.594Z,91.92
2018-05-11T09:40:14.050Z,91.82
2018-05-11T09:41:14.435Z,91.44
2018-05-11T09:42:13.883Z,91.44
2018-05-11T09:43:13.890Z,91.44
2018-05-11T09:44:14.078Z,91.34
2018-05-11T09:45:13.916Z,91.53
2018-05-11T09:46:14.365Z,91.92
2018-05-11T09:47:13.951Z,91.72
2018-05-11T09:48:14.476Z,91.72
2018-05-11T09:49:14.094Z,92.01
2018-05-11T09:50:14.006Z,92.11
2018-05-11T09:51:14.005Z,92.21
2018-05-11T09:52:14.548Z,91.92
2018-05-11T09:53:15.153Z,91.63
2018-05-11T09:54:14.659Z,91.44
2018-05-11T09:55:14.039Z,91.53
2018-05-11T09:56:14.070Z,91.53
2018-05-11T09:57:14.070Z,91.82
2018-05-11T09:58:14.110Z,91.15
2018-05-11T09:59:14.197Z,91.05
2018-05-11T10:00:15.084Z,90.86
2018-05-11T10:01:14.116Z,90.58
2018-05-11T10:02:14.125Z,90.29
2018-05-11T10:03:14.160Z,90.58
2018-05-11T10:04:14.279Z,90.00
2018-05-11T10:05:14.190Z,89.66
2018-05-11T10:06:14.180Z,89.37
2018-05-11T10:07:14.219Z,89.47
2018-05-11T10:08:14.208Z,89.47
2018-05-11T10:09:14.217Z,88.99
2018-05-11T10:10:14.379Z,88.51
2018-05-11T10:11:14.271Z,88.51
2018-05-11T10:12:15.797Z,88.03
2018-05-11T10:13:15.125Z,88.23
2018-05-11T10:14:14.921Z,88.42
2018-05-11T10:16:14.315Z,87.27
2018-05-11T10:17:14.329Z,87.65
2018-05-11T10:18:14.389Z,87.37
2018-05-11T10:19:14.360Z,86.21
2018-05-11T10:20:14.515Z,85.35
2018-05-11T10:21:14.392Z,84.58
2018-05-11T10:22:14.399Z,84.72
2018-05-11T10:23:14.396Z,84.53
2018-05-11T10:24:14.417Z,83.95
2018-05-11T10:25:14.579Z,83.86
2018-05-11T10:26:14.454Z,83.58
2018-05-11T10:27:14.466Z,83.48
2018-05-11T10:28:14.473Z,83.38
2018-05-11T10:29:14.490Z,83.29
2018-05-11T10:30:14.622Z,81.56
2018-05-11T10:31:14.524Z,81.75
2018-05-11T10:32:14.519Z,81.66
2018-05-11T10:33:16.041Z,81.98
2018-05-11T10:34:14.549Z,81.79
2018-05-11T10:35:22.275Z,82.08
2018-05-11T10:36:14.580Z,81.22
2018-05-11T10:37:14.597Z,81.02
2018-05-11T10:38:14.611Z,80.64
2018-05-11T10:39:14.642Z,78.82
2018-05-11T10:40:14.758Z,77.95
2018-05-11T10:41:14.668Z,77.38
2018-05-11T10:42:14.690Z,76.90
2018-05-11T10:43:14.684Z,76.32
2018-05-11T10:44:14.691Z,76.52
2018-05-11T10:45:14.872Z,74.98
2018-05-11T10:46:14.711Z,75.27
2018-05-11T10:47:14.727Z,75.31
2018-05-11T10:51:14.811Z,73.30
2018-05-11T10:52:41.372Z,72.63
2018-05-11T10:53:34.043Z,71.95
2018-05-11T10:54:15.660Z,70.70
2018-05-11T10:55:16.969Z,69.56
2018-05-11T10:56:14.852Z,69.87
2018-05-11T10:57:14.878Z,69.78
2018-05-11T10:58:14.881Z,69.78
2018-05-11T10:59:14.920Z,68.44
2018-05-11T11:00:15.079Z,68.53
2018-05-11T11:01:14.925Z,68.15
2018-05-11T11:02:15.038Z,67.67
2018-05-11T11:03:14.956Z,65.97
2018-05-11T11:04:14.997Z,64.25
2018-05-11T11:05:15.101Z,63.76
2018-05-11T11:06:15.838Z,62.42
2018-05-11T11:10:15.191Z,61.84
2018-05-11T11:12:16.192Z,61.27
2018-05-11T11:13:17.449Z,61.08
2018-05-11T11:14:15.149Z,60.91
2018-05-11T11:15:15.263Z,60.63
2018-05-11T11:16:15.154Z,61.11
2018-05-11T11:17:15.167Z,61.11
2018-05-11T11:18:15.184Z,60.53
2018-05-11T11:19:15.225Z,60.34
2018-05-11T11:20:15.230Z,60.14
2018-05-11T11:21:15.327Z,59.50
2018-05-11T11:22:15.241Z,58.64
2018-05-11T11:23:15.273Z,57.68
2018-05-11T11:24:15.305Z,57.29
2018-05-11T11:25:15.297Z,56.81
2018-05-11T11:26:15.433Z,56.45
2018-05-11T11:27:15.349Z,55.49
2018-05-11T11:28:15.351Z,54.82
2018-05-11T11:29:15.360Z,54.82
2018-05-11T11:30:15.384Z,53.96
2018-05-11T11:31:15.518Z,54.91
2018-05-11T11:32:15.438Z,54.43
2018-05-11T11:33:15.446Z,54.27
2018-05-11T11:34:15.516Z,53.38
2018-05-11T11:35:15.455Z,53.19
2018-05-11T11:36:15.629Z,53.96
2018-05-11T11:37:15.495Z,53.76
2018-05-11T11:38:15.533Z,53.98
2018-05-11T11:39:16.444Z,53.50
2018-05-11T11:40:16.170Z,53.31
2018-05-11T11:41:15.716Z,52.54
2018-05-11T11:43:17.485Z,51.50
2018-05-11T11:44:15.607Z,51.41
2018-05-11T11:45:15.630Z,50.93
2018-05-11T11:46:15.790Z,50.06
2018-05-11T11:47:15.665Z,50.73
2018-05-11T11:48:19.582Z,50.06
2018-05-11T11:49:15.702Z,51.12
2018-05-11T11:50:15.734Z,50.25
2018-05-11T11:51:15.833Z,49.96
2018-05-11T11:52:15.748Z,49.48
2018-05-11T11:53:15.789Z,49.02
2018-05-11T11:54:15.783Z,48.64
2018-05-11T11:55:15.825Z,48.06
2018-05-11T11:56:17.790Z,48.35
2018-05-11T11:57:29.143Z,47.87
2018-05-11T11:58:15.886Z,48.18
2018-05-11T12:00:17.103Z,47.22
2018-05-11T12:01:17.167Z,46.15
2018-05-11T12:03:17.063Z,46.18
2018-05-11T12:04:17.401Z,46.86
2018-05-11T12:05:16.690Z,45.21
2018-05-11T12:06:16.109Z,44.06
2018-05-11T12:07:16.449Z,44.54
2018-05-11T12:08:17.253Z,45.41
2018-05-11T12:09:16.065Z,45.34
2018-05-11T12:11:16.876Z,45.72
2018-05-11T12:12:17.124Z,44.95
2018-05-11T12:14:17.175Z,45.24
2018-05-11T12:15:16.977Z,45.36
2018-05-11T12:16:16.893Z,44.87
2018-05-11T12:17:16.213Z,44.29
2018-05-11T12:18:17.062Z,45.53
2018-05-11T12:19:17.460Z,44.01
2018-05-11T12:20:16.269Z,44.97
2018-05-11T12:21:16.413Z,43.33
2018-05-11T12:22:16.309Z,42.85
2018-05-11T12:23:16.331Z,42.68
2018-05-11T12:24:17.501Z,42.48
2018-05-11T12:26:16.624Z,40.67
2018-05-11T12:27:16.433Z,40.57
2018-05-11T12:28:16.428Z,39.87
2018-05-11T12:30:17.451Z,39.78
2018-05-11T12:32:16.506Z,39.51
2018-05-11T12:34:16.575Z,39.51
2018-05-11T12:36:17.855Z,36.92
2018-05-11T12:37:17.214Z,36.63
2018-05-11T12:38:16.625Z,36.44
2018-05-11T12:39:16.675Z,36.63
2018-05-11T12:40:16.678Z,36.82
2018-05-11T12:42:16.713Z,36.15
2018-05-11T12:43:54.057Z,37.02
2018-05-11T12:44:17.556Z,37.30
2018-05-11T12:45:16.769Z,38.46
2018-05-11T12:46:16.941Z,36.24
2018-05-11T12:47:50.025Z,37.04
2018-05-11T12:48:16.838Z,38.10
2018-05-11T12:50:16.900Z,37.81
2018-05-11T12:51:17.026Z,38.10
2018-05-11T12:56:17.106Z,33.01
2018-05-11T12:57:17.931Z,33.39
2018-05-11T13:00:18.578Z,33.86
2018-05-11T13:01:17.273Z,32.04
2018-05-11T13:02:17.144Z,31.74
2018-05-11T13:03:17.161Z,31.26
2018-05-11T13:04:17.191Z,31.37
2018-05-11T13:05:37.695Z,31.47
2018-05-11T13:06:18.545Z,30.52
2018-05-11T13:07:17.884Z,29.74
2018-05-11T13:09:17.287Z,31.10
2018-05-11T13:10:17.312Z,30.81
2018-05-11T13:12:17.372Z,30.42
2018-05-11T13:13:18.601Z,29.46
2018-05-11T13:15:17.426Z,29.37
2018-05-11T13:16:18.637Z,28.03
2018-05-11T13:18:18.988Z,27.17
2018-05-11T13:20:17.555Z,26.60
2018-05-11T13:21:17.681Z,25.53
2018-05-11T13:22:17.597Z,25.73
2018-05-11T13:23:17.612Z,25.43
2018-05-11T13:24:17.658Z,25.63
2018-05-11T13:25:17.657Z,24.96
2018-05-11T13:26:18.615Z,25.45
2018-05-11T13:27:18.920Z,25.14
2018-05-11T13:29:17.753Z,25.43
2018-05-11T13:30:17.865Z,25.73
2018-05-11T13:31:17.912Z,25.25
2018-05-11T13:32:17.838Z,24.38
2018-05-11T13:33:19.242Z,25.15
2018-05-11T13:35:17.911Z,24.57
2018-05-11T13:36:18.106Z,24.78
2018-05-11T13:37:17.952Z,25.16
2018-05-11T13:38:17.971Z,24.00
2018-05-11T13:45:02.865Z,23.82
2018-05-11T13:46:16.528Z,22.65
2018-05-11T13:51:33.232Z,21.98